Time;durP1;ratioP1;P1;durP2;ratioP2;P2;SDS_P1;SDS_P2;PMS_P1;PMS_P2;Temp;Humidity;BMP_temperature;BMP_pressure;BME280_temperature;BME280_humidity;BME280_pressure;Samples;Min_cycle;Max_cycle;Signal;HPM_P1;HPM_P2
2023/07/02 00:02:19;;;;;;;7.25;4.68;;;18.00;99.90;;;;;;5032404;28;20075;-58
2023/07/02 00:05:05;;;;;;;5.13;4.38;;;17.90;99.90;;;;;;5018534;28;20474;-57
2023/07/02 00:07:51;;;;;;;7.32;4.60;;;17.90;99.90;;;;;;5040986;28;20034;-59
2023/07/02 00:10:37;;;;;;;7.13;4.95;;;17.90;99.90;;;;;;5052189;28;20021;-59
2023/07/02 00:13:23;;;;;;;4.90;4.43;;;18.00;99.90;;;;;;5058681;28;20029;-59
2023/07/02 00:16:09;;;;;;;8.45;5.47;;;18.00;99.90;;;;;;5049812;28;20095;-57
2023/07/02 00:18:55;;;;;;;8.95;5.13;;;18.10;99.90;;;;;;5050444;28;20405;-58
2023/07/02 00:21:42;;;;;;;6.22;5.28;;;18.00;99.90;;;;;;5037865;28;20609;-58
2023/07/02 00:24:29;;;;;;;6.70;5.45;;;17.90;99.90;;;;;;5037054;28;20037;-59
2023/07/02 00:27:15;;;;;;;12.23;6.15;;;18.10;99.90;;;;;;5046687;28;20026;-59
2023/07/02 00:30:01;;;;;;;6.07;5.47;;;18.00;99.90;;;;;;5066907;28;20063;-59
2023/07/02 00:32:47;;;;;;;6.88;5.10;;;18.00;99.90;;;;;;5047165;28;20494;-58
2023/07/02 00:35:33;;;;;;;7.43;5.22;;;17.90;99.90;;;;;;5045069;28;20021;-59
2023/07/02 00:38:19;;;;;;;10.18;5.80;;;18.00;99.90;;;;;;5015525;28;20077;-58
2023/07/02 00:41:04;;;;;;;7.72;5.53;;;17.90;99.90;;;;;;5023761;28;20030;-58
2023/07/02 00:43:54;;;;;;;5.60;5.00;;;17.90;99.90;;;;;;5036117;28;20108;-57
2023/07/02 00:46:40;;;;;;;6.10;5.15;;;17.90;99.90;;;;;;5035541;28;20164;-60
2023/07/02 00:49:26;;;;;;;9.90;5.45;;;18.00;99.90;;;;;;5056045;28;20033;-58
2023/07/02 00:52:13;;;;;;;9.48;6.03;;;18.10;99.90;;;;;;5014858;28;20522;-59
2023/07/02 00:54:58;;;;;;;6.43;5.70;;;17.90;99.90;;;;;;5014878;28;20053;-57
2023/07/02 00:57:46;;;;;;;6.80;6.00;;;17.90;99.90;;;;;;5051334;28;20065;-58
2023/07/02 01:00:32;;;;;;;9.10;5.97;;;18.00;99.90;;;;;;5046603;28;20026;-57
2023/07/02 01:03:18;;;;;;;10.73;5.80;;;17.90;99.90;;;;;;5034889;28;20486;-57
2023/07/02 01:06:04;;;;;;;7.63;6.00;;;17.80;99.90;;;;;;5035776;28;20421;-59
2023/07/02 01:08:49;;;;;;;10.40;6.13;;;17.70;99.90;;;;;;5061255;28;20044;-59
2023/07/02 01:11:50;;;;;;;9.45;5.95;;;17.70;99.90;;;;;;5049609;28;20094;-56
2023/07/02 01:14:43;;;;;;;8.70;5.63;;;17.70;99.90;;;;;;5045788;28;20035;-57
2023/07/02 01:17:37;;;;;;;9.15;5.35;;;17.70;99.90;;;;;;5043840;28;20389;-57
2023/07/02 01:20:25;;;;;;;7.03;5.72;;;17.70;99.90;;;;;;5048157;28;20036;-57
2023/07/02 01:23:11;;;;;;;7.28;6.05;;;17.70;99.90;;;;;;5060937;28;20041;-58
2023/07/02 01:25:59;;;;;;;6.85;5.40;;;17.70;99.90;;;;;;5053532;28;20021;-57
2023/07/02 01:28:45;;;;;;;8.48;5.15;;;17.80;99.90;;;;;;5044027;28;20490;-55
2023/07/02 01:31:31;;;;;;;7.97;4.93;;;17.80;99.90;;;;;;5048278;28;20513;-58
2023/07/02 01:34:17;;;;;;;7.22;4.82;;;17.80;99.90;;;;;;5053158;28;20029;-58
2023/07/02 01:37:03;;;;;;;6.25;4.88;;;17.80;99.90;;;;;;5033815;28;20033;-58
2023/07/02 01:39:49;;;;;;;8.30;5.07;;;17.80;99.90;;;;;;5034049;28;20026;-59
2023/07/02 01:42:36;;;;;;;6.95;5.45;;;17.80;99.90;;;;;;5052810;28;20074;-57
2023/07/02 01:45:22;;;;;;;7.15;4.75;;;17.80;99.90;;;;;;5052767;28;20079;-57
2023/07/02 01:48:08;;;;;;;5.88;4.68;;;17.80;99.90;;;;;;5052794;28;20021;-56
2023/07/02 01:50:54;;;;;;;7.97;4.70;;;17.70;99.90;;;;;;5043938;28;20119;-57
2023/07/02 01:53:40;;;;;;;6.78;4.65;;;17.60;99.90;;;;;;5022104;28;20052;-59
2023/07/02 01:56:26;;;;;;;5.63;4.45;;;17.50;99.90;;;;;;5033486;28;20037;-58
2023/07/02 01:59:13;;;;;;;4.90;4.40;;;17.60;99.90;;;;;;5017638;28;20034;-57
2023/07/02 02:01:59;;;;;;;9.55;4.45;;;17.70;99.90;;;;;;5042917;28;20107;-56
2023/07/02 02:04:44;;;;;;;4.53;4.13;;;17.70;99.90;;;;;;5052723;28;20037;-57
2023/07/02 02:07:30;;;;;;;4.75;3.97;;;17.70;99.90;;;;;;5049858;28;20028;-57
2023/07/02 02:10:16;;;;;;;5.20;4.35;;;17.70;99.90;;;;;;5037080;28;20605;-57
2023/07/02 02:13:02;;;;;;;6.38;4.13;;;17.70;99.90;;;;;;5033271;28;20502;-57
2023/07/02 02:15:48;;;;;;;5.25;4.25;;;17.60;99.90;;;;;;5013726;28;20030;-55
2023/07/02 02:18:34;;;;;;;8.98;4.35;;;17.70;99.90;;;;;;5012874;28;20117;-57
2023/07/02 02:21:21;;;;;;;5.55;4.63;;;17.50;99.90;;;;;;5037556;28;20040;-56
2023/07/02 02:24:07;;;;;;;9.65;5.20;;;17.60;99.90;;;;;;5035824;28;20029;-53
2023/07/02 02:26:53;;;;;;;5.10;4.65;;;17.60;99.90;;;;;;5032752;28;20080;-57
2023/07/02 02:29:39;;;;;;;6.30;5.03;;;17.50;99.90;;;;;;5058923;28;20087;-59
2023/07/02 02:32:25;;;;;;;6.13;4.60;;;17.40;99.90;;;;;;5021210;28;20025;-57
2023/07/02 02:35:13;;;;;;;6.07;4.60;;;17.40;99.90;;;;;;5051456;28;20103;-56
2023/07/02 02:38:02;;;;;;;8.48;4.88;;;17.40;99.90;;;;;;5050108;28;20497;-57
2023/07/02 02:40:48;;;;;;;5.65;5.10;;;17.50;99.90;;;;;;5045209;28;20029;-60
2023/07/02 02:43:34;;;;;;;5.80;5.20;;;17.60;99.90;;;;;;5033189;28;20385;-58
2023/07/02 02:46:24;;;;;;;7.43;5.05;;;17.70;99.90;;;;;;5042570;28;20040;-59
2023/07/02 02:49:10;;;;;;;7.30;5.57;;;17.60;99.90;;;;;;5053053;28;20112;-60
2023/07/02 02:51:56;;;;;;;7.80;5.45;;;17.60;99.90;;;;;;5052589;28;20489;-58
2023/07/02 02:54:41;;;;;;;11.20;5.60;;;17.50;99.90;;;;;;5056948;28;20390;-59
2023/07/02 02:57:27;;;;;;;7.43;5.32;;;17.50;99.90;;;;;;5051809;28;20401;-61
2023/07/02 03:00:13;;;;;;;8.55;5.45;;;17.50;99.90;;;;;;5035082;28;20735;-59
2023/07/02 03:03:00;;;;;;;10.00;6.53;;;17.70;99.90;;;;;;5034104;28;20033;-63
2023/07/02 03:05:48;;;;;;;8.18;5.82;;;17.70;99.90;;;;;;5046723;28;20021;-59
2023/07/02 03:08:34;;;;;;;8.70;6.40;;;17.60;99.90;;;;;;5018972;28;20080;-60
2023/07/02 03:11:20;;;;;;;7.53;6.07;;;17.50;99.90;;;;;;5051883;28;20033;-59
2023/07/02 03:14:06;;;;;;;6.93;5.40;;;17.60;99.90;;;;;;5049106;28;20035;-60
2023/07/02 03:16:52;;;;;;;8.35;6.00;;;17.60;99.90;;;;;;5032866;28;20032;-60
2023/07/02 03:19:38;;;;;;;9.35;6.05;;;17.60;99.90;;;;;;5033361;28;20029;-59
2023/07/02 03:22:23;;;;;;;11.18;6.13;;;17.50;99.90;;;;;;5046502;28;20025;-59
2023/07/02 03:25:09;;;;;;;8.18;6.15;;;17.30;99.90;;;;;;5033007;28;20057;-60
2023/07/02 03:27:55;;;;;;;10.23;6.72;;;17.20;99.90;;;;;;5047073;28;20048;-59
2023/07/02 03:30:41;;;;;;;9.50;6.35;;;17.20;99.90;;;;;;5044761;28;20061;-60
2023/07/02 03:33:27;;;;;;;7.35;5.60;;;17.20;99.90;;;;;;5031932;28;20112;-58
2023/07/02 03:36:13;;;;;;;8.73;5.75;;;17.20;99.90;;;;;;5047780;28;20033;-59
2023/07/02 03:38:59;;;;;;;7.43;5.68;;;17.30;99.90;;;;;;5041498;28;20025;-58
2023/07/02 03:41:45;;;;;;;6.53;5.78;;;17.30;99.90;;;;;;5048829;28;20021;-57
2023/07/02 03:44:31;;;;;;;7.43;5.40;;;17.40;99.90;;;;;;5039873;28;20055;-58
2023/07/02 03:47:19;;;;;;;6.00;5.28;;;17.40;99.90;;;;;;5051258;28;20025;-54
2023/07/02 03:50:05;;;;;;;7.75;5.80;;;17.50;99.90;;;;;;5055542;28;20040;-56
2023/07/02 03:52:51;;;;;;;7.53;6.18;;;17.20;99.90;;;;;;5058556;28;20405;-55
2023/07/02 03:55:38;;;;;;;7.05;6.00;;;17.20;99.90;;;;;;5056784;28;20242;-55
2023/07/02 03:58:25;;;;;;;6.20;5.35;;;17.20;99.90;;;;;;5052968;28;20115;-56
2023/07/02 04:01:11;;;;;;;7.97;5.50;;;17.30;99.90;;;;;;5037514;28;20037;-55
2023/07/02 04:03:58;;;;;;;7.75;5.57;;;17.30;99.90;;;;;;5036335;28;20029;-54
2023/07/02 04:06:43;;;;;;;6.60;5.47;;;17.30;99.90;;;;;;5020167;28;20034;-55
2023/07/02 04:09:32;;;;;;;6.60;5.90;;;17.40;99.90;;;;;;5043906;28;20056;-56
2023/07/02 04:12:18;;;;;;;6.05;5.55;;;17.50;99.90;;;;;;5037324;28;20038;-55
2023/07/02 04:15:05;;;;;;;8.68;5.97;;;17.70;99.90;;;;;;5035738;28;20405;-56
2023/07/02 04:17:51;;;;;;;9.20;5.90;;;17.50;99.90;;;;;;5048963;28;20025;-58
2023/07/02 04:20:40;;;;;;;11.18;6.43;;;17.40;99.90;;;;;;5051282;28;20029;-58
2023/07/02 04:23:25;;;;;;;7.50;6.80;;;17.40;99.90;;;;;;5047731;28;20033;-56
2023/07/02 04:26:12;;;;;;;9.27;6.38;;;17.40;99.90;;;;;;5036735;28;20036;-57
2023/07/02 04:28:58;;;;;;;7.55;6.40;;;17.50;99.90;;;;;;5035614;28;20060;-57
2023/07/02 04:31:44;;;;;;;11.43;6.78;;;17.50;99.90;;;;;;5035328;28;20025;-59
2023/07/02 04:34:30;;;;;;;7.25;6.18;;;17.40;99.90;;;;;;5035521;28;20108;-58
2023/07/02 04:37:16;;;;;;;8.68;6.60;;;17.50;99.90;;;;;;5035376;28;20030;-58
2023/07/02 04:40:12;;;;;;;6.80;6.10;;;17.60;99.90;;;;;;5036908;28;20187;-58
2023/07/02 04:42:58;;;;;;;10.43;6.78;;;17.60;99.90;;;;;;5036521;28;20033;-59
2023/07/02 04:45:44;;;;;;;8.63;7.22;;;17.60;99.90;;;;;;5062018;28;20033;-59
2023/07/02 04:48:30;;;;;;;12.85;8.02;;;17.50;99.90;;;;;;5034301;28;20402;-57
2023/07/02 04:51:16;;;;;;;7.68;6.90;;;17.50;99.90;;;;;;5034951;28;20466;-57
2023/07/02 04:54:02;;;;;;;9.10;7.82;;;17.50;99.90;;;;;;5035135;28;20075;-57
2023/07/02 04:56:48;;;;;;;7.50;6.80;;;17.50;99.90;;;;;;5035219;28;20026;-57
2023/07/02 04:59:34;;;;;;;7.38;6.78;;;17.70;99.90;;;;;;5035178;28;20112;-59
2023/07/02 05:02:20;;;;;;;8.07;7.13;;;17.90;99.90;;;;;;5034021;28;20121;-59
2023/07/02 05:05:06;;;;;;;8.40;7.53;;;18.00;99.90;;;;;;5034677;28;20041;-57
2023/07/02 05:07:54;;;;;;;7.95;7.05;;;18.10;99.90;;;;;;5038211;28;20117;-59
2023/07/02 05:10:40;;;;;;;9.10;8.20;;;18.20;99.90;;;;;;5034231;28;20041;-59
2023/07/02 05:13:26;;;;;;;8.50;7.70;;;18.20;99.90;;;;;;5034576;28;20044;-59
2023/07/02 05:16:13;;;;;;;9.18;8.27;;;18.10;99.90;;;;;;5033975;28;20083;-58
2023/07/02 05:18:59;;;;;;;9.88;8.07;;;18.00;99.90;;;;;;5034835;28;20026;-60
2023/07/02 05:21:45;;;;;;;11.50;8.52;;;18.10;99.90;;;;;;5034677;28;20034;-59
2023/07/02 05:24:30;;;;;;;9.15;8.18;;;18.20;99.90;;;;;;5034626;28;20083;-59
2023/07/02 05:27:16;;;;;;;13.48;9.65;;;18.30;99.90;;;;;;5033564;28;20575;-61
2023/07/02 05:30:03;;;;;;;10.65;9.68;;;18.20;99.90;;;;;;5032933;28;20025;-59
2023/07/02 05:32:49;;;;;;;9.98;9.10;;;18.20;99.90;;;;;;5034861;28;20498;-58
2023/07/02 05:35:35;;;;;;;11.18;9.50;;;18.20;99.90;;;;;;5034011;28;20041;-58
2023/07/02 05:38:21;;;;;;;10.43;9.35;;;18.20;99.90;;;;;;5034568;28;20493;-60
2023/07/02 05:41:07;;;;;;;9.85;8.95;;;18.40;99.90;;;;;;5033998;28;20022;-58
2023/07/02 05:43:53;;;;;;;10.50;9.10;;;18.30;99.90;;;;;;5033869;28;20022;-59
2023/07/02 05:46:39;;;;;;;11.13;9.57;;;18.20;99.90;;;;;;5033039;28;20060;-59
2023/07/02 05:49:26;;;;;;;10.13;9.23;;;18.20;99.90;;;;;;5034297;28;20071;-56
2023/07/02 05:52:12;;;;;;;9.80;8.77;;;18.20;99.90;;;;;;5033043;28;20029;-55
2023/07/02 05:54:58;;;;;;;9.70;8.82;;;18.30;99.90;;;;;;5034447;28;20022;-58
2023/07/02 05:57:44;;;;;;;9.35;8.45;;;18.40;99.90;;;;;;5034600;28;20419;-53
2023/07/02 06:00:30;;;;;;;8.77;8.00;;;18.30;99.90;;;;;;5033651;28;20433;-57
2023/07/02 06:03:20;;;;;;;8.80;8.00;;;18.50;99.90;;;;;;5032537;28;20563;-59
2023/07/02 06:06:06;;;;;;;8.73;7.93;;;18.50;99.90;;;;;;5033238;28;20037;-59
2023/07/02 06:08:52;;;;;;;9.85;7.70;;;18.50;99.90;;;;;;5034431;28;20117;-59
2023/07/02 06:11:38;;;;;;;7.97;7.28;;;18.50;99.90;;;;;;5033996;28;20505;-59
2023/07/02 06:14:25;;;;;;;7.40;6.80;;;18.60;99.90;;;;;;5034552;28;20038;-59
2023/07/02 06:17:11;;;;;;;7.85;7.15;;;18.60;99.90;;;;;;5037841;28;20402;-59
2023/07/02 06:19:57;;;;;;;7.60;6.22;;;18.60;99.90;;;;;;5036235;28;20025;-58
2023/07/02 06:22:43;;;;;;;6.97;6.38;;;18.70;99.90;;;;;;5035349;28;20029;-60
2023/07/02 06:25:29;;;;;;;7.03;6.32;;;18.80;99.90;;;;;;5032983;28;20458;-57
2023/07/02 06:28:15;;;;;;;7.97;6.00;;;18.90;99.90;;;;;;5034017;28;20068;-59
2023/07/02 06:31:01;;;;;;;6.70;6.00;;;18.90;99.90;;;;;;5033323;28;20033;-58
2023/07/02 06:33:47;;;;;;;7.32;5.80;;;18.90;99.90;;;;;;5032773;28;20039;-58
2023/07/02 06:36:33;;;;;;;9.13;5.63;;;19.00;99.90;;;;;;5032904;28;20564;-55
2023/07/02 06:39:19;;;;;;;8.27;5.28;;;19.10;99.90;;;;;;5034271;28;20445;-55
2023/07/02 06:42:05;;;;;;;6.75;5.03;;;19.30;99.90;;;;;;5037458;28;20064;-58
2023/07/02 06:44:51;;;;;;;5.85;5.05;;;19.30;99.90;;;;;;5034902;28;20112;-56
2023/07/02 06:47:37;;;;;;;6.90;4.93;;;19.20;99.90;;;;;;5038919;28;20184;-56
2023/07/02 06:50:23;;;;;;;5.40;4.90;;;19.30;99.90;;;;;;5032574;28;20045;-58
2023/07/02 06:53:09;;;;;;;5.03;4.50;;;19.30;99.90;;;;;;5033592;28;20044;-59
2023/07/02 06:55:55;;;;;;;6.70;4.90;;;19.30;99.90;;;;;;5032474;28;20084;-55
2023/07/02 06:58:44;;;;;;;5.43;4.50;;;19.60;99.90;;;;;;5032945;28;20029;-56
2023/07/02 07:01:30;;;;;;;5.18;4.60;;;19.60;99.90;;;;;;5033431;28;20061;-55
2023/07/02 07:04:16;;;;;;;5.28;4.70;;;19.60;99.90;;;;;;5032671;28;20465;-54
2023/07/02 07:07:02;;;;;;;6.25;5.05;;;19.50;99.90;;;;;;5031642;28;20029;-56
2023/07/02 07:09:48;;;;;;;5.32;4.82;;;19.30;99.90;;;;;;5033177;28;20183;-54
2023/07/02 07:12:34;;;;;;;5.22;4.60;;;19.20;99.90;;;;;;5036777;28;20112;-57
2023/07/02 07:15:20;;;;;;;5.68;4.60;;;19.30;99.90;;;;;;5040345;28;20044;-58
2023/07/02 07:18:09;;;;;;;5.30;4.63;;;19.30;99.90;;;;;;5041316;28;20528;-58
2023/07/02 07:20:55;;;;;;;5.60;4.53;;;19.30;99.90;;;;;;5034183;28;20029;-56
2023/07/02 07:23:41;;;;;;;5.40;4.03;;;19.20;99.90;;;;;;5033514;28;20129;-56
2023/07/02 07:26:27;;;;;;;6.65;4.43;;;19.30;99.90;;;;;;5032078;28;20037;-53
2023/07/02 07:29:13;;;;;;;7.72;4.18;;;19.30;99.90;;;;;;5032524;28;20418;-56
2023/07/02 07:31:59;;;;;;;4.70;3.90;;;19.30;99.90;;;;;;5032879;28;20097;-57
2023/07/02 07:34:45;;;;;;;5.72;4.47;;;19.20;99.90;;;;;;5031518;28;20485;-54
2023/07/02 07:37:31;;;;;;;7.13;4.13;;;19.20;99.90;;;;;;5032379;28;20029;-56
2023/07/02 07:40:17;;;;;;;4.53;4.13;;;19.30;99.90;;;;;;5032603;28;20021;-58
2023/07/02 07:43:03;;;;;;;10.00;4.60;;;19.50;99.90;;;;;;5032263;28;20018;-57
2023/07/02 07:45:49;;;;;;;5.55;4.53;;;19.50;99.90;;;;;;5033083;28;20029;-57
2023/07/02 07:48:35;;;;;;;5.60;4.15;;;19.60;99.90;;;;;;5031794;28;20029;-58
2023/07/02 07:51:21;;;;;;;7.00;4.15;;;19.80;99.90;;;;;;5032856;28;20053;-57
2023/07/02 07:54:07;;;;;;;5.38;4.13;;;19.80;99.90;;;;;;5033880;28;20033;-55
2023/07/02 07:56:53;;;;;;;3.88;3.55;;;19.80;99.90;;;;;;5033358;28;20777;-58
2023/07/02 07:59:39;;;;;;;6.95;4.00;;;20.00;99.10;;;;;;5031132;28;20028;-59
2023/07/02 08:02:25;;;;;;;7.65;4.10;;;20.10;98.40;;;;;;5035188;28;20030;-58
2023/07/02 08:05:11;;;;;;;5.82;3.83;;;20.20;99.00;;;;;;5033843;28;20030;-59
2023/07/02 08:07:57;;;;;;;5.80;3.88;;;20.20;99.30;;;;;;5033156;28;20033;-58
2023/07/02 08:10:45;;;;;;;4.63;4.10;;;20.40;98.80;;;;;;5031643;28;20014;-57
2023/07/02 08:13:31;;;;;;;4.10;3.70;;;20.10;97.60;;;;;;5036261;28;20041;-57
2023/07/02 08:16:16;;;;;;;5.25;4.05;;;20.10;98.10;;;;;;5023152;28;20087;-56
2023/07/02 08:19:02;;;;;;;4.65;3.97;;;20.00;98.40;;;;;;5031207;28;20091;-59
2023/07/02 08:21:48;;;;;;;7.70;4.15;;;20.20;99.00;;;;;;5033703;28;20498;-59
2023/07/02 08:24:34;;;;;;;4.40;4.00;;;20.20;98.80;;;;;;5023754;28;20125;-58
2023/07/02 08:27:20;;;;;;;5.50;4.75;;;20.30;98.70;;;;;;5018729;28;20408;-57
2023/07/02 08:30:07;;;;;;;5.20;4.32;;;20.20;98.60;;;;;;5013189;28;20033;-56
2023/07/02 08:32:54;;;;;;;6.13;4.80;;;20.20;98.60;;;;;;5013310;28;20121;-55
2023/07/02 08:35:40;;;;;;;10.93;5.35;;;20.10;98.80;;;;;;5013632;28;20030;-56
2023/07/02 08:38:26;;;;;;;6.57;5.90;;;20.20;98.20;;;;;;5028049;28;20032;-58
2023/07/02 08:41:12;;;;;;;10.35;6.50;;;20.30;97.60;;;;;;5034492;28;20026;-55
2023/07/02 08:43:59;;;;;;;9.40;6.15;;;20.20;97.60;;;;;;5034356;28;20064;-56
2023/07/02 08:46:47;;;;;;;8.90;6.18;;;20.40;97.30;;;;;;5033502;28;20022;-59
2023/07/02 08:49:33;;;;;;;9.80;6.63;;;20.50;97.30;;;;;;5034299;28;20026;-55
2023/07/02 08:52:19;;;;;;;10.00;6.43;;;20.60;97.00;;;;;;5034617;28;20029;-54
2023/07/02 08:55:06;;;;;;;9.02;7.13;;;20.40;96.90;;;;;;5034384;28;20025;-54
2023/07/02 08:57:55;;;;;;;7.65;6.85;;;20.40;97.20;;;;;;5034731;28;20033;-54
2023/07/02 09:01:07;;;;;;;8.63;7.78;;;20.40;97.20;;;;;;5034094;28;20446;-58
2023/07/02 09:04:00;;;;;;;11.38;7.88;;;20.30;96.60;;;;;;5034805;28;20025;-58
2023/07/02 09:06:48;;;;;;;11.13;7.78;;;20.20;96.90;;;;;;5034503;28;20038;-58
2023/07/02 09:09:48;;;;;;;11.25;8.30;;;20.30;97.10;;;;;;5034215;28;20387;-59
2023/07/02 09:12:35;;;;;;;11.18;8.10;;;20.20;97.00;;;;;;5035764;28;20156;-59
2023/07/02 09:15:21;;;;;;;11.38;8.45;;;20.10;97.10;;;;;;5033929;28;20497;-59
2023/07/02 09:18:26;;;;;;;15.38;8.90;;;20.40;97.20;;;;;;5035104;28;20037;-59
2023/07/02 09:21:12;;;;;;;10.82;7.97;;;20.50;97.10;;;;;;5035426;28;20033;-59
2023/07/02 09:23:58;;;;;;;12.85;8.52;;;20.50;96.50;;;;;;5034881;28;20064;-59
2023/07/02 09:26:51;;;;;;;13.55;8.77;;;20.70;95.90;;;;;;5020231;28;20037;-58
2023/07/02 09:29:37;;;;;;;11.27;7.55;;;20.80;95.60;;;;;;5034122;28;20029;-57
2023/07/02 09:32:26;;;;;;;8.70;7.80;;;20.90;95.00;;;;;;5033533;28;20040;-59
2023/07/02 09:35:13;;;;;;;13.55;8.15;;;20.80;95.40;;;;;;5032453;28;20091;-58
2023/07/02 09:37:58;;;;;;;8.43;7.63;;;20.80;95.50;;;;;;5032984;28;20021;-57
2023/07/02 09:40:47;;;;;;;9.13;7.05;;;20.90;94.80;;;;;;5030550;28;20426;-58
2023/07/02 09:43:33;;;;;;;11.98;7.53;;;21.10;95.00;;;;;;5032289;28;20687;-59
2023/07/02 09:46:19;;;;;;;8.55;7.38;;;21.30;94.10;;;;;;5033192;28;20033;-58
2023/07/02 09:49:08;;;;;;;10.48;7.47;;;21.50;94.50;;;;;;5033740;28;20030;-57
2023/07/02 09:51:54;;;;;;;11.38;7.68;;;21.40;93.60;;;;;;5031756;28;20113;-54
2023/07/02 09:54:41;;;;;;;10.02;7.97;;;21.50;94.40;;;;;;5032653;28;20449;-58
2023/07/02 09:57:31;;;;;;;13.38;8.32;;;21.40;94.00;;;;;;5031326;28;20047;-60
2023/07/02 10:00:17;;;;;;;13.65;8.27;;;21.00;94.40;;;;;;5032159;28;20036;-58
2023/07/02 10:03:03;;;;;;;12.48;7.75;;;21.00;94.70;;;;;;5032252;28;20029;-56
2023/07/02 10:05:49;;;;;;;11.18;7.57;;;21.00;94.40;;;;;;5033706;28;20158;-59
2023/07/02 10:08:35;;;;;;;9.75;7.57;;;21.20;94.50;;;;;;5036333;28;20079;-61
2023/07/02 10:11:34;;;;;;;11.40;7.60;;;21.40;94.10;;;;;;5034505;28;20036;-56
2023/07/02 10:14:21;;;;;;;9.85;7.72;;;21.50;94.00;;;;;;5032859;28;20541;-59
2023/07/02 10:17:07;;;;;;;11.38;7.82;;;21.40;93.90;;;;;;5030051;28;20029;-57
2023/07/02 10:19:55;;;;;;;9.40;7.50;;;21.30;94.10;;;;;;5030575;28;20038;-58
2023/07/02 10:22:54;;;;;;;11.77;8.25;;;21.30;94.10;;;;;;5031756;28;20029;-58
2023/07/02 10:25:40;;;;;;;10.75;7.53;;;21.20;94.40;;;;;;5032668;28;20026;-58
2023/07/02 10:28:26;;;;;;;10.23;8.45;;;21.10;94.40;;;;;;5030763;28;20033;-55
2023/07/02 10:31:22;;;;;;;9.35;8.20;;;21.00;94.70;;;;;;5038328;28;20089;-58
2023/07/02 10:34:08;;;;;;;13.68;8.82;;;20.80;95.10;;;;;;5035378;28;20030;-58
2023/07/02 10:36:54;;;;;;;11.60;9.50;;;20.60;95.40;;;;;;5031819;28;20025;-58
2023/07/02 10:39:40;;;;;;;14.13;9.05;;;20.30;96.00;;;;;;5031637;28;20025;-59
2023/07/02 10:42:27;;;;;;;16.27;9.85;;;20.30;96.30;;;;;;5030129;28;20029;-59
2023/07/02 10:45:13;;;;;;;13.20;9.63;;;20.30;96.40;;;;;;5030878;28;20069;-59
2023/07/02 10:48:10;;;;;;;14.27;10.75;;;20.40;95.70;;;;;;5030860;28;20033;-58
2023/07/02 10:50:56;;;;;;;17.35;11.15;;;20.70;95.40;;;;;;5028864;28;20510;-58
2023/07/02 10:53:42;;;;;;;12.50;9.40;;;20.80;95.20;;;;;;5031444;28;20022;-60
2023/07/02 10:56:28;;;;;;;15.20;10.35;;;21.00;95.10;;;;;;5032053;28;20512;-58
2023/07/02 10:59:24;;;;;;;13.45;9.65;;;21.10;94.50;;;;;;5030651;28;20021;-60
2023/07/02 11:02:11;;;;;;;13.27;9.38;;;21.10;94.20;;;;;;5026020;28;20034;-57
2023/07/02 11:04:57;;;;;;;16.98;10.25;;;21.30;94.80;;;;;;5027205;28;20033;-59
2023/07/02 11:07:43;;;;;;;16.30;10.10;;;21.30;94.50;;;;;;5031412;28;20082;-57
2023/07/02 11:10:29;;;;;;;15.98;10.30;;;21.40;94.70;;;;;;5039199;28;20092;-57
2023/07/02 11:13:17;;;;;;;14.25;9.82;;;21.50;94.10;;;;;;5030299;28;20072;-60
2023/07/02 11:16:03;;;;;;;17.67;10.35;;;21.30;93.80;;;;;;5027835;28;20084;-57
2023/07/02 11:18:50;;;;;;;16.67;10.27;;;21.70;93.40;;;;;;5029841;28;20061;-59
2023/07/02 11:21:37;;;;;;;15.75;9.80;;;21.90;92.70;;;;;;5033940;28;20489;-58
2023/07/02 11:24:41;;;;;;;15.70;10.27;;;22.00;92.50;;;;;;5034819;28;20025;-59
2023/07/02 11:27:27;;;;;;;15.02;10.05;;;22.00;92.60;;;;;;5036692;28;20045;-60
2023/07/02 11:30:13;;;;;;;17.20;10.73;;;21.80;92.70;;;;;;5021405;28;20482;-58
2023/07/02 11:33:00;;;;;;;13.27;9.30;;;21.80;92.50;;;;;;5033939;28;20519;-61
2023/07/02 11:35:46;;;;;;;16.70;10.32;;;21.50;92.00;;;;;;5035026;28;20037;-60
2023/07/02 11:38:34;;;;;;;17.05;10.18;;;21.40;92.00;;;;;;5034547;28;20025;-61
2023/07/02 11:41:20;;;;;;;16.27;10.35;;;21.20;92.10;;;;;;5029260;28;20029;-59
2023/07/02 11:44:07;;;;;;;14.43;9.88;;;21.30;92.70;;;;;;5015115;28;20403;-61
2023/07/02 11:46:53;;;;;;;13.60;9.85;;;21.30;91.80;;;;;;5011569;28;20030;-60
2023/07/02 11:49:39;;;;;;;18.88;10.15;;;21.50;91.40;;;;;;5011526;28;20045;-61
2023/07/02 11:52:25;;;;;;;16.75;10.55;;;21.30;91.10;;;;;;5012212;28;20038;-58
2023/07/02 11:55:11;;;;;;;15.82;10.15;;;21.40;91.30;;;;;;5010714;28;20038;-57
2023/07/02 11:57:57;;;;;;;14.50;9.82;;;21.50;90.50;;;;;;5012262;28;20029;-57
2023/07/02 12:00:43;;;;;;;17.25;10.57;;;21.40;90.30;;;;;;5012452;28;20144;-58
2023/07/02 12:03:30;;;;;;;15.57;9.38;;;21.70;90.10;;;;;;5013822;28;20056;-57
2023/07/02 12:06:16;;;;;;;15.82;9.05;;;21.60;90.20;;;;;;5012015;28;20034;-58
2023/07/02 12:09:02;;;;;;;15.02;9.57;;;21.90;90.00;;;;;;5013543;28;20125;-56
2023/07/02 12:11:48;;;;;;;14.23;10.25;;;22.10;90.00;;;;;;5017161;28;20061;-60
2023/07/02 12:14:34;;;;;;;12.52;8.95;;;22.40;90.10;;;;;;5031126;28;20037;-58
2023/07/02 12:17:20;;;;;;;15.63;10.18;;;22.50;88.60;;;;;;5036716;28;20022;-58
2023/07/02 12:20:06;;;;;;;14.77;10.23;;;22.20;87.90;;;;;;5036867;28;20215;-58
2023/07/02 12:22:53;;;;;;;14.70;10.05;;;22.00;88.30;;;;;;5035427;28;20036;-59
2023/07/02 12:25:39;;;;;;;14.68;10.13;;;22.20;88.80;;;;;;5035365;28;20041;-59
2023/07/02 12:28:25;;;;;;;14.98;10.65;;;22.20;88.00;;;;;;5035397;28;20048;-57
2023/07/02 12:31:12;;;;;;;14.98;10.50;;;22.00;87.20;;;;;;5035692;28;20029;-58
2023/07/02 12:33:58;;;;;;;20.85;11.10;;;21.90;87.70;;;;;;5035586;28;20048;-55
2023/07/02 12:36:44;;;;;;;14.43;10.45;;;21.80;88.30;;;;;;5035839;28;20487;-57
2023/07/02 12:39:30;;;;;;;13.70;11.05;;;21.70;89.10;;;;;;5033174;28;20052;-58
2023/07/02 12:42:16;;;;;;;17.20;11.70;;;21.90;87.70;;;;;;5034525;28;20053;-59
2023/07/02 12:45:02;;;;;;;18.35;11.70;;;22.00;87.60;;;;;;5034909;28;20466;-58
2023/07/02 12:47:48;;;;;;;17.85;11.98;;;21.90;87.70;;;;;;5034013;28;20079;-60
2023/07/02 12:50:37;;;;;;;17.23;10.40;;;22.10;86.80;;;;;;5045976;28;20040;-58
2023/07/02 12:53:24;;;;;;;16.85;10.98;;;22.30;86.00;;;;;;5035222;28;20080;-60
2023/07/02 12:56:10;;;;;;;13.60;10.40;;;22.60;84.90;;;;;;5035858;28;20018;-59
2023/07/02 12:58:56;;;;;;;13.23;9.90;;;22.80;83.40;;;;;;5035692;28;20025;-57
2023/07/02 13:01:42;;;;;;;15.55;10.70;;;22.70;82.90;;;;;;5034894;28;20045;-59
2023/07/02 13:04:27;;;;;;;15.85;11.25;;;22.60;83.00;;;;;;5035624;28;20040;-59
2023/07/02 13:07:13;;;;;;;16.60;11.50;;;22.60;82.60;;;;;;5035730;28;20053;-58
2023/07/02 13:09:59;;;;;;;13.77;11.43;;;22.80;82.90;;;;;;5035832;28;20520;-57
2023/07/02 13:12:45;;;;;;;17.63;10.63;;;22.80;82.30;;;;;;5036946;28;20602;-59
2023/07/02 13:15:32;;;;;;;19.98;11.85;;;22.80;83.10;;;;;;5036176;28;20632;-56
2023/07/02 13:18:17;;;;;;;16.42;11.95;;;22.80;82.20;;;;;;5033997;28;20029;-59
2023/07/02 13:21:03;;;;;;;18.73;12.18;;;22.90;83.30;;;;;;5035341;28;20494;-57
2023/07/02 13:23:49;;;;;;;20.27;11.95;;;22.80;83.50;;;;;;5035062;28;20021;-56
2023/07/02 13:26:35;;;;;;;22.13;12.43;;;22.80;84.80;;;;;;5038412;28;20025;-57
2023/07/02 13:29:21;;;;;;;16.90;11.25;;;22.90;84.20;;;;;;5045374;28;20065;-58
2023/07/02 13:32:07;;;;;;;20.80;12.38;;;23.00;81.80;;;;;;5036419;28;20056;-59
2023/07/02 13:34:53;;;;;;;19.52;12.70;;;22.60;81.50;;;;;;5035657;28;20125;-60
2023/07/02 13:37:39;;;;;;;17.42;12.13;;;22.60;82.20;;;;;;5034427;28;20033;-58
2023/07/02 13:40:26;;;;;;;16.58;11.32;;;22.50;82.00;;;;;;5035372;28;20025;-59
2023/07/02 13:43:18;;;;;;;21.13;11.23;;;22.50;81.90;;;;;;5035559;28;20029;-59
2023/07/02 13:46:04;;;;;;;20.88;11.82;;;22.60;80.50;;;;;;5023311;28;20153;-59
2023/07/02 13:48:50;;;;;;;16.33;11.30;;;22.90;80.30;;;;;;5035285;28;20067;-59
2023/07/02 13:51:36;;;;;;;17.65;11.77;;;23.00;80.60;;;;;;5035497;28;20564;-60
2023/07/02 13:54:22;;;;;;;16.20;11.57;;;23.10;80.80;;;;;;5036010;28;20025;-60
2023/07/02 13:57:08;;;;;;;18.25;11.60;;;23.10;80.20;;;;;;5035312;28;20025;-59
2023/07/02 13:59:56;;;;;;;15.60;11.23;;;23.20;80.20;;;;;;5034333;28;20030;-59
2023/07/02 14:02:42;;;;;;;18.63;11.63;;;23.10;79.30;;;;;;5033709;28;20037;-59
2023/07/02 14:05:28;;;;;;;15.73;10.85;;;23.10;79.10;;;;;;5034465;28;20025;-60
2023/07/02 14:08:14;;;;;;;17.95;12.30;;;23.00;80.10;;;;;;5033246;28;20498;-59
2023/07/02 14:11:00;;;;;;;18.90;12.70;;;22.90;80.00;;;;;;5034719;28;20041;-59
2023/07/02 14:13:46;;;;;;;17.33;11.82;;;22.90;80.00;;;;;;5035105;28;20406;-59
2023/07/02 14:16:32;;;;;;;16.73;11.95;;;23.00;79.60;;;;;;5037121;28;20022;-59
2023/07/02 14:19:18;;;;;;;16.05;12.57;;;23.00;80.80;;;;;;5036414;28;20394;-59
2023/07/02 14:22:04;;;;;;;19.08;12.38;;;22.90;81.00;;;;;;5032502;28;20022;-59